Terminal Aerodrome Forecast
Issued by NWS Sioux Falls, SD

Home | Current Version | Previous Version | Text Only | Print | Product List | Glossary Off
Versions: 1 2 3 4 5 6 7 8 9 10 11 12 13

691
FTUS43 KFSD 140522
TAFFSD
TAF
KFSD 140522Z 1406/1506 36008KT P6SM VCSH BKN020 OVC040
     FM141900 34010G20KT 6SM -SN OVC020
     FM150000 33010KT P6SM VCSH SCT020 OVC040
     FM150300 33008KT P6SM SCT020 BKN040=

USA.gov is the U.S. government's official web portal to all federal, state and local government web resources and services.